Time;durP1;ratioP1;P1;durP2;ratioP2;P2;SDS_P1;SDS_P2;PMS_P1;PMS_P2;Temp;Humidity;BMP_temperature;BMP_pressure;BME280_temperature;BME280_humidity;BME280_pressure;Samples;Min_cycle;Max_cycle;Signal;HPM_P1;HPM_P2
2021/11/14 00:01:31;;;;;;;;;;;;;;;2.74;79.63;101461.33;1609393;89;20197;-66
2021/11/14 00:04:01;;;;;;;;;;;;;;;2.72;79.58;101467.36;1609326;89;20343;-65
2021/11/14 00:06:30;;;;;;;;;;;;;;;2.68;79.58;101465.88;1609427;89;20596;-65
2021/11/14 00:08:58;;;;;;;;;;;;;;;2.64;79.67;101467.97;1609506;89;20515;-65
2021/11/14 00:11:27;;;;;;;;;;;;;;;2.67;79.68;101473.63;1609866;89;20193;-64
2021/11/14 00:13:58;;;;;;;;;;;;;;;2.68;79.59;101466.73;1609767;89;20197;-64
2021/11/14 00:16:27;;;;;;;;;;;;;;;2.69;79.57;101471.66;1609682;89;20252;-64
2021/11/14 00:18:56;;;;;;;;;;;;;;;2.67;79.61;101467.72;1609497;88;20264;-64
2021/11/14 00:21:28;;;;;;;;;;;;;;;2.65;79.62;101480.52;1609460;89;20321;-65
2021/11/14 00:23:56;;;;;;;;;;;;;;;2.64;79.62;101469.31;1609512;89;20233;-65
2021/11/14 00:26:25;;;;;;;;;;;;;;;2.66;79.67;101471.90;1609554;88;20177;-64
2021/11/14 00:28:53;;;;;;;;;;;;;;;2.66;79.70;101466.48;1609787;89;20466;-67
2021/11/14 00:31:21;;;;;;;;;;;;;;;2.65;79.66;101466.98;1586524;89;20165;-65
2021/11/14 00:33:50;;;;;;;;;;;;;;;2.62;79.57;101463.16;1609504;89;20197;-65
2021/11/14 00:36:21;;;;;;;;;;;;;;;2.57;79.52;101461.28;1586594;89;20177;-66
2021/11/14 00:38:50;;;;;;;;;;;;;;;2.60;79.61;101464.23;1609596;88;20182;-66
2021/11/14 00:41:19;;;;;;;;;;;;;;;2.65;79.75;101464.27;1609557;89;20225;-64
2021/11/14 00:43:47;;;;;;;;;;;;;;;2.67;79.90;101455.55;1609539;88;20656;-65
2021/11/14 00:46:17;;;;;;;;;;;;;;;2.69;80.01;101449.52;1609836;88;20531;-64
2021/11/14 00:48:45;;;;;;;;;;;;;;;2.70;80.06;101446.33;1609810;89;20572;-63
2021/11/14 00:51:17;;;;;;;;;;;;;;;2.68;80.11;101449.15;1609517;89;20170;-66
2021/11/14 00:53:47;;;;;;;;;;;;;;;2.69;80.29;101450.02;1609573;88;20192;-65
2021/11/14 00:56:15;;;;;;;;;;;;;;;2.71;80.39;101443.49;1609564;89;20552;-64
2021/11/14 00:58:45;;;;;;;;;;;;;;;2.77;80.47;101447.56;1609472;89;20233;-64
2021/11/14 01:01:13;;;;;;;;;;;;;;;2.85;80.50;101447.31;1609607;89;20229;-66
2021/11/14 01:03:43;;;;;;;;;;;;;;;2.93;80.55;101452.61;1609696;88;20233;-65
2021/11/14 01:06:13;;;;;;;;;;;;;;;2.97;80.59;101452.24;1609877;89;20234;-65
2021/11/14 01:08:44;;;;;;;;;;;;;;;2.98;80.56;101449.04;1609517;88;20190;-65
2021/11/14 01:11:14;;;;;;;;;;;;;;;2.97;80.52;101453.59;1609581;88;20220;-65
2021/11/14 01:13:44;;;;;;;;;;;;;;;2.95;80.55;101447.44;1609597;89;20185;-66
2021/11/14 01:16:14;;;;;;;;;;;;;;;2.97;80.59;101451.38;1609618;89;20169;-64
2021/11/14 01:18:42;;;;;;;;;;;;;;;2.98;80.59;101455.81;1609556;89;20500;-68
2021/11/14 01:21:12;;;;;;;;;;;;;;;3.01;80.49;101452.36;1609597;88;20528;-72
2021/11/14 01:23:40;;;;;;;;;;;;;;;3.03;80.53;101451.75;1628032;88;20185;-66
2021/11/14 01:26:09;;;;;;;;;;;;;;;3.06;80.55;101446.58;1633280;88;20157;-68
2021/11/14 01:28:38;;;;;;;;;;;;;;;3.06;80.56;101452.86;1632841;88;20185;-67
2021/11/14 01:31:06;;;;;;;;;;;;;;;3.06;80.56;101455.56;1632824;88;20208;-68
2021/11/14 01:33:35;;;;;;;;;;;;;;;3.07;80.56;101450.52;1632713;88;20165;-67
2021/11/14 01:36:04;;;;;;;;;;;;;;;3.08;80.55;101453.59;1632799;86;20249;-68
2021/11/14 01:38:32;;;;;;;;;;;;;;;3.09;80.51;101453.96;1632954;88;20532;-68
2021/11/14 01:41:04;;;;;;;;;;;;;;;3.10;80.49;101453.47;1633083;88;20237;-68
2021/11/14 01:43:36;;;;;;;;;;;;;;;3.10;80.47;101458.39;1632730;88;20173;-67
2021/11/14 01:46:04;;;;;;;;;;;;;;;3.09;80.51;101455.80;1632737;88;20181;-67
2021/11/14 01:48:33;;;;;;;;;;;;;;;3.10;80.45;101452.11;1632800;88;20181;-68
2021/11/14 01:51:01;;;;;;;;;;;;;;;3.11;80.44;101453.34;1632849;88;20205;-67
2021/11/14 01:53:30;;;;;;;;;;;;;;;3.14;80.48;101444.11;1632770;88;20165;-68
2021/11/14 01:55:58;;;;;;;;;;;;;;;3.15;80.54;101453.95;1632806;88;20152;-68
2021/11/14 01:58:27;;;;;;;;;;;;;;;3.15;80.58;101455.31;1632774;88;20478;-66
2021/11/14 02:01:02;;;;;;;;;;;;;;;3.16;80.57;101455.19;1633139;88;20627;-68
2021/11/14 02:03:30;;;;;;;;;;;;;;;3.16;80.63;101456.54;1633097;87;20560;-65
2021/11/14 02:06:02;;;;;;;;;;;;;;;3.18;80.63;101452.36;1632831;88;20192;-65
2021/11/14 02:08:30;;;;;;;;;;;;;;;3.18;80.65;101457.77;1632770;88;20149;-66
2021/11/14 02:10:58;;;;;;;;;;;;;;;3.16;80.67;101457.03;1632763;88;20591;-69
2021/11/14 02:13:26;;;;;;;;;;;;;;;3.14;80.82;101457.16;1632724;88;20228;-70
2021/11/14 02:15:55;;;;;;;;;;;;;;;3.19;80.92;101460.84;1632730;88;20609;-67
2021/11/14 02:18:25;;;;;;;;;;;;;;;3.21;80.92;101454.81;1632995;88;20220;-65
2021/11/14 02:20:54;;;;;;;;;;;;;;;3.26;80.97;101453.98;1632916;88;20149;-67
2021/11/14 02:23:23;;;;;;;;;;;;;;;3.24;80.92;101451.00;1632854;86;20515;-67
2021/11/14 02:25:53;;;;;;;;;;;;;;;3.24;81.03;101451.86;1632634;88;20245;-66
2021/11/14 02:28:22;;;;;;;;;;;;;;;3.26;81.04;101449.06;1632500;88;20169;-67
2021/11/14 02:30:50;;;;;;;;;;;;;;;3.27;81.04;101462.47;1632701;88;20172;-67
2021/11/14 02:33:19;;;;;;;;;;;;;;;3.28;81.02;101468.26;1632797;88;20181;-67
2021/11/14 02:35:50;;;;;;;;;;;;;;;3.30;80.97;101468.13;1632914;87;20224;-66
2021/11/14 02:38:20;;;;;;;;;;;;;;;3.29;80.92;101465.92;1632365;88;20153;-67
2021/11/14 02:40:49;;;;;;;;;;;;;;;3.30;80.92;101467.64;1633053;88;20290;-67
2021/11/14 02:43:18;;;;;;;;;;;;;;;3.31;80.87;101468.01;1632704;88;20229;-67
2021/11/14 02:45:47;;;;;;;;;;;;;;;3.31;80.77;101470.72;1632498;88;20569;-67
2021/11/14 02:48:16;;;;;;;;;;;;;;;3.31;80.70;101463.95;1632703;88;20576;-70
2021/11/14 02:50:46;;;;;;;;;;;;;;;3.34;80.66;101462.34;1632752;86;20204;-67
2021/11/14 02:53:15;;;;;;;;;;;;;;;3.32;80.56;101461.61;1632687;88;20177;-65
2021/11/14 02:55:44;;;;;;;;;;;;;;;3.31;80.59;101461.73;1632539;88;20229;-65
2021/11/14 02:58:12;;;;;;;;;;;;;;;3.30;80.60;101465.42;1632833;88;20212;-67
2021/11/14 03:00:57;;;;;;;;;;;;;;;3.29;80.59;101463.21;1632613;88;20208;-66
2021/11/14 03:03:26;;;;;;;;;;;;;;;3.30;80.58;101462.72;1632555;88;20224;-66
2021/11/14 03:05:54;;;;;;;;;;;;;;;3.31;80.56;101459.88;1632439;88;20329;-67
2021/11/14 03:08:23;;;;;;;;;;;;;;;3.32;80.49;101458.90;1632732;88;20165;-66
2021/11/14 03:10:51;;;;;;;;;;;;;;;3.35;80.36;101459.14;1632638;88;20204;-65
2021/11/14 03:13:21;;;;;;;;;;;;;;;3.34;80.26;101460.98;1632667;88;20224;-65
2021/11/14 03:15:53;;;;;;;;;;;;;;;3.32;80.25;101454.83;1632461;88;20499;-67
2021/11/14 03:18:22;;;;;;;;;;;;;;;3.31;80.28;101449.54;1632645;88;20153;-67
2021/11/14 03:20:51;;;;;;;;;;;;;;;3.30;80.20;101461.36;1632951;88;20204;-66
2021/11/14 03:23:26;;;;;;;;;;;;;;;3.26;80.16;101452.62;1634035;88;20213;-67
2021/11/14 03:25:56;;;;;;;;;;;;;;;3.21;80.05;101454.81;1636253;88;20165;-68
2021/11/14 03:28:24;;;;;;;;;;;;;;;3.17;80.07;101458.76;1636322;87;20580;-67
2021/11/14 03:30:55;;;;;;;;;;;;;;;3.13;80.04;101451.87;1636550;88;20232;-65
2021/11/14 03:33:24;;;;;;;;;;;;;;;3.11;80.16;101457.90;1636261;88;20181;-67
2021/11/14 03:35:55;;;;;;;;;;;;;;;3.11;80.21;101453.84;1636241;88;20212;-66
2021/11/14 03:38:27;;;;;;;;;;;;;;;3.13;80.16;101451.87;1636508;88;20190;-66
2021/11/14 03:40:56;;;;;;;;;;;;;;;3.14;80.22;101454.45;1636437;87;20240;-66
2021/11/14 03:43:25;;;;;;;;;;;;;;;3.14;80.36;101453.09;1636267;88;20168;-66
2021/11/14 03:45:54;;;;;;;;;;;;;;;3.14;80.51;101446.82;1636274;88;20197;-66
2021/11/14 03:48:22;;;;;;;;;;;;;;;3.14;80.57;101450.39;1636316;87;20157;-70
2021/11/14 03:50:51;;;;;;;;;;;;;;;3.15;80.72;101450.76;1636237;88;20237;-66
2021/11/14 03:53:20;;;;;;;;;;;;;;;3.17;80.68;101450.63;1636205;88;20592;-66
2021/11/14 03:55:50;;;;;;;;;;;;;;;3.14;80.70;101449.03;1636272;88;20153;-66
2021/11/14 03:58:18;;;;;;;;;;;;;;;3.13;80.75;101448.66;1636290;88;20178;-66
2021/11/14 04:00:50;;;;;;;;;;;;;;;3.13;80.78;101454.58;1636295;88;20207;-66
2021/11/14 04:03:18;;;;;;;;;;;;;;;3.11;80.76;101452.48;1636582;88;20246;-66
2021/11/14 04:05:47;;;;;;;;;;;;;;;3.09;80.79;101453.10;1636490;88;20167;-68
2021/11/14 04:08:17;;;;;;;;;;;;;;;3.07;80.74;101452.36;1636482;88;20189;-66
2021/11/14 04:10:46;;;;;;;;;;;;;;;3.09;80.72;101452.61;1636599;88;20566;-66
2021/11/14 04:13:15;;;;;;;;;;;;;;;3.08;80.58;101457.66;1636280;88;20225;-67
2021/11/14 04:15:45;;;;;;;;;;;;;;;3.07;80.52;101449.16;1636269;88;20185;-67
2021/11/14 04:18:13;;;;;;;;;;;;;;;3.06;80.48;101456.91;1636154;88;20161;-67
2021/11/14 04:20:43;;;;;;;;;;;;;;;3.04;80.39;101460.23;1636313;88;20478;-66
2021/11/14 04:23:11;;;;;;;;;;;;;;;3.00;80.27;101452.48;1636217;88;20523;-66
2021/11/14 04:25:40;;;;;;;;;;;;;;;2.98;80.33;101454.45;1636172;88;20201;-65
2021/11/14 04:28:11;;;;;;;;;;;;;;;2.98;80.35;101455.31;1636252;88;20264;-64
2021/11/14 04:30:40;;;;;;;;;;;;;;;2.98;80.27;101453.10;1636517;88;20164;-66
2021/11/14 04:33:09;;;;;;;;;;;;;;;2.97;80.21;101459.50;1636212;88;20471;-65
2021/11/14 04:35:37;;;;;;;;;;;;;;;3.00;80.13;101459.26;1636291;88;20220;-67
2021/11/14 04:38:07;;;;;;;;;;;;;;;2.98;80.08;101455.81;1636478;88;20483;-66
2021/11/14 04:40:37;;;;;;;;;;;;;;;2.94;80.13;101449.78;1636519;87;20455;-66
2021/11/14 04:43:06;;;;;;;;;;;;;;;2.92;80.14;101449.04;1636311;87;20523;-68
2021/11/14 04:45:34;;;;;;;;;;;;;;;2.92;80.18;101450.89;1636360;88;20161;-66
2021/11/14 04:48:03;;;;;;;;;;;;;;;2.90;80.23;101448.80;1636317;88;20232;-65
2021/11/14 04:50:32;;;;;;;;;;;;;;;2.91;80.28;101441.05;1636291;88;20239;-66
2021/11/14 04:53:01;;;;;;;;;;;;;;;2.91;80.30;101444.61;1636197;88;20272;-68
2021/11/14 04:55:30;;;;;;;;;;;;;;;2.92;80.29;101444.98;1636425;88;20496;-69
2021/11/14 04:57:58;;;;;;;;;;;;;;;2.93;80.31;101452.61;1636346;87;20568;-68
2021/11/14 05:00:29;;;;;;;;;;;;;;;2.93;80.18;101453.97;1636194;88;20220;-68
2021/11/14 05:02:58;;;;;;;;;;;;;;;2.94;80.14;101459.25;1636298;88;20252;-67
2021/11/14 05:05:26;;;;;;;;;;;;;;;2.94;80.16;101456.55;1636233;88;20200;-65
2021/11/14 05:07:54;;;;;;;;;;;;;;;2.94;80.21;101462.45;1636661;87;20248;-65
2021/11/14 05:10:23;;;;;;;;;;;;;;;2.95;80.22;101464.17;1636374;88;20160;-67
2021/11/14 05:12:52;;;;;;;;;;;;;;;2.95;80.22;101461.47;1636417;88;20225;-66
2021/11/14 05:15:21;;;;;;;;;;;;;;;2.94;80.17;101464.67;1636417;88;20200;-67
2021/11/14 05:17:49;;;;;;;;;;;;;;;2.93;80.14;101463.44;1636290;88;20507;-68
2021/11/14 05:20:18;;;;;;;;;;;;;;;2.92;80.09;101476.60;1636653;88;20168;-66
2021/11/14 05:22:46;;;;;;;;;;;;;;;2.91;80.07;101477.59;1636220;88;20204;-68
2021/11/14 05:25:14;;;;;;;;;;;;;;;2.90;80.11;101478.57;1623824;86;20228;-67
2021/11/14 05:27:43;;;;;;;;;;;;;;;2.84;80.17;101478.08;1622894;88;20532;-68
2021/11/14 05:30:13;;;;;;;;;;;;;;;2.79;80.26;101481.63;1622723;88;20567;-68
2021/11/14 05:32:42;;;;;;;;;;;;;;;2.74;80.40;101476.22;1622684;88;20228;-67
2021/11/14 05:35:10;;;;;;;;;;;;;;;2.71;80.51;101475.11;1622710;88;20225;-67
2021/11/14 05:37:38;;;;;;;;;;;;;;;2.66;80.58;101487.64;1622904;88;20538;-65
2021/11/14 05:40:08;;;;;;;;;;;;;;;2.61;80.71;101482.22;1622701;88;20229;-67
2021/11/14 05:42:37;;;;;;;;;;;;;;;2.55;80.82;101490.30;1622814;88;20213;-66
2021/11/14 05:45:06;;;;;;;;;;;;;;;2.54;80.90;101495.33;1622996;88;20165;-67
2021/11/14 05:47:34;;;;;;;;;;;;;;;2.57;81.08;101501.86;1622618;88;20476;-67
2021/11/14 05:50:05;;;;;;;;;;;;;;;2.58;81.10;101491.41;1622672;88;20300;-65
2021/11/14 05:52:34;;;;;;;;;;;;;;;2.58;81.17;101502.23;1622647;88;20272;-66
2021/11/14 05:55:03;;;;;;;;;;;;;;;2.61;81.24;101507.92;1622789;88;20163;-66
2021/11/14 05:57:39;;;;;;;;;;;;;;;2.59;81.24;101503.95;1622947;88;20198;-67
2021/11/14 06:00:10;;;;;;;;;;;;;;;2.58;81.28;101506.28;1622204;88;20158;-65
2021/11/14 06:02:42;;;;;;;;;;;;;;;2.57;81.35;101508.63;1622853;88;20173;-70
2021/11/14 06:07:38;;;;;;;;;;;;;;;2.57;81.48;101512.68;1622600;88;20229;-66
2021/11/14 06:10:07;;;;;;;;;;;;;;;2.57;81.48;101512.68;1622572;88;20165;-67
2021/11/14 06:12:37;;;;;;;;;;;;;;;2.57;81.54;101512.68;1622756;88;20178;-68
2021/11/14 06:15:08;;;;;;;;;;;;;;;2.58;81.67;101513.05;1622854;88;20169;-67
2021/11/14 06:17:36;;;;;;;;;;;;;;;2.60;81.77;101509.77;1622817;88;20257;-66
2021/11/14 06:20:06;;;;;;;;;;;;;;;2.59;81.76;101520.19;1622677;88;20166;-67
2021/11/14 06:22:34;;;;;;;;;;;;;;;2.56;81.85;101515.02;1622723;88;20213;-66
2021/11/14 06:25:05;;;;;;;;;;;;;;;2.54;81.96;101519.69;1629940;88;20182;-67
2021/11/14 06:27:34;;;;;;;;;;;;;;;2.55;82.09;101520.92;1632810;88;20674;-66
2021/11/14 06:30:05;;;;;;;;;;;;;;;2.60;82.13;101524.65;1632820;88;20200;-66
2021/11/14 06:32:35;;;;;;;;;;;;;;;2.61;82.12;101523.67;1632776;88;20213;-68
2021/11/14 06:35:03;;;;;;;;;;;;;;;2.64;82.04;101512.61;1632745;88;20169;-67
2021/11/14 06:37:32;;;;;;;;;;;;;;;2.64;81.99;101523.44;1632999;88;20161;-76
2021/11/14 06:40:00;;;;;;;;;;;;;;;2.64;82.00;101526.14;1633007;87;20541;-66
2021/11/14 06:42:28;;;;;;;;;;;;;;;2.63;81.98;101523.06;1632966;88;20488;-68
2021/11/14 06:44:57;;;;;;;;;;;;;;;2.62;82.06;101513.70;1632690;86;20173;-67
2021/11/14 06:47:26;;;;;;;;;;;;;;;2.63;82.16;101520.84;1632785;88;20184;-67
2021/11/14 06:49:55;;;;;;;;;;;;;;;2.63;82.21;101523.55;1632711;88;20182;-67
2021/11/14 06:52:24;;;;;;;;;;;;;;;2.64;82.22;101532.91;1632625;88;20161;-68
2021/11/14 06:54:52;;;;;;;;;;;;;;;2.63;82.24;101532.53;1632745;88;20168;-66
2021/11/14 06:57:22;;;;;;;;;;;;;;;2.66;82.28;101534.14;1632829;86;20512;-66
2021/11/14 06:59:50;;;;;;;;;;;;;;;2.69;82.23;101529.34;1632953;88;20219;-67
2021/11/14 07:02:20;;;;;;;;;;;;;;;2.73;82.20;101528.62;1632804;88;20499;-67
2021/11/14 07:04:49;;;;;;;;;;;;;;;2.76;82.15;101527.89;1632803;86;20253;-66
2021/11/14 07:07:17;;;;;;;;;;;;;;;2.77;82.02;101526.04;1632958;88;20590;-68
2021/11/14 07:09:46;;;;;;;;;;;;;;;2.76;82.04;101540.06;1632976;88;20165;-67
2021/11/14 07:12:15;;;;;;;;;;;;;;;2.75;82.14;101542.89;1633047;88;20515;-67
2021/11/14 07:14:44;;;;;;;;;;;;;;;2.74;82.18;101537.97;1632968;88;20188;-69
2021/11/14 07:17:15;;;;;;;;;;;;;;;2.73;82.20;101528.13;1632840;88;20172;-69
2021/11/14 07:19:44;;;;;;;;;;;;;;;2.72;82.19;101530.45;1632747;88;20232;-67
2021/11/14 07:22:12;;;;;;;;;;;;;;;2.73;82.28;101524.06;1632866;88;20534;-67
2021/11/14 07:24:40;;;;;;;;;;;;;;;2.76;82.30;101525.67;1634269;88;20225;-67
2021/11/14 07:27:09;;;;;;;;;;;;;;;2.75;82.33;101530.22;1636433;88;20449;-66
2021/11/14 07:29:37;;;;;;;;;;;;;;;2.78;82.49;101521.86;1636275;88;20229;-66
2021/11/14 07:32:07;;;;;;;;;;;;;;;2.82;82.53;101526.05;1636300;88;20455;-66
2021/11/14 07:34:35;;;;;;;;;;;;;;;2.78;82.39;101520.51;1636275;88;20194;-67
2021/11/14 07:37:04;;;;;;;;;;;;;;;2.75;82.57;101522.10;1636541;88;20172;-67
2021/11/14 07:39:35;;;;;;;;;;;;;;;2.77;82.66;101517.44;1636453;88;20196;-65
2021/11/14 07:42:05;;;;;;;;;;;;;;;2.86;82.76;101522.13;1636279;88;20544;-66
2021/11/14 07:44:33;;;;;;;;;;;;;;;2.92;82.72;101519.42;1636415;88;20224;-65
2021/11/14 07:47:03;;;;;;;;;;;;;;;2.97;82.73;101519.06;1636457;88;20216;-66
2021/11/14 07:49:31;;;;;;;;;;;;;;;3.00;82.67;101522.88;1636296;88;20276;-67
2021/11/14 07:52:02;;;;;;;;;;;;;;;2.99;82.59;101520.66;1636321;88;20224;-66
2021/11/14 07:54:31;;;;;;;;;;;;;;;3.02;82.63;101519.56;1636292;88;20196;-67
2021/11/14 07:56:59;;;;;;;;;;;;;;;3.04;82.56;101525.22;1636268;88;20164;-67
2021/11/14 07:59:28;;;;;;;;;;;;;;;3.06;82.50;101523.74;1636199;88;20185;-66
2021/11/14 08:01:57;;;;;;;;;;;;;;;3.08;82.47;101516.36;1636659;88;20455;-66
2021/11/14 08:04:26;;;;;;;;;;;;;;;3.10;82.46;101515.25;1636335;88;20244;-66
2021/11/14 08:06:58;;;;;;;;;;;;;;;3.16;82.48;101520.67;1636268;88;20169;-66
2021/11/14 08:09:26;;;;;;;;;;;;;;;3.19;82.36;101517.72;1636352;87;20611;-67
2021/11/14 08:11:55;;;;;;;;;;;;;;;3.24;82.32;101525.48;1636271;88;20184;-68
2021/11/14 08:14:25;;;;;;;;;;;;;;;3.26;82.24;101517.63;1583773;91;20210;-68
2021/11/14 08:16:54;;;;;;;;;;;;;;;3.29;82.20;101517.38;1583971;91;20242;-68
2021/11/14 08:19:22;;;;;;;;;;;;;;;3.33;82.12;101516.15;1583852;91;20174;-65
2021/11/14 08:21:51;;;;;;;;;;;;;;;3.35;81.96;101516.89;1584059;91;20233;-68
2021/11/14 08:24:19;;;;;;;;;;;;;;;3.36;81.79;101510.48;1584083;90;20165;-65
2021/11/14 08:26:48;;;;;;;;;;;;;;;3.37;81.69;101508.64;1584056;91;20515;-66
2021/11/14 08:29:17;;;;;;;;;;;;;;;3.38;81.63;101503.09;1583948;91;20495;-71
2021/11/14 08:31:46;;;;;;;;;;;;;;;3.41;81.64;101507.40;1592291;88;20475;-67
2021/11/14 08:34:15;;;;;;;;;;;;;;;3.43;81.53;101504.94;1636230;87;20165;-65
2021/11/14 08:36:44;;;;;;;;;;;;;;;3.45;81.52;101502.10;1636247;88;20260;-66
2021/11/14 08:39:12;;;;;;;;;;;;;;;3.47;81.42;101492.86;1636306;88;20485;-66
2021/11/14 08:41:41;;;;;;;;;;;;;;;3.49;81.32;101499.52;1636372;88;20256;-68
2021/11/14 08:44:10;;;;;;;;;;;;;;;3.49;81.31;101492.24;1636285;88;20168;-66
2021/11/14 08:46:38;;;;;;;;;;;;;;;3.52;81.25;101489.77;1636312;88;20220;-67
2021/11/14 08:49:06;;;;;;;;;;;;;;;3.58;81.23;101491.13;1636431;88;20459;-67
2021/11/14 08:51:35;;;;;;;;;;;;;;;3.64;81.13;101488.77;1636454;88;20463;-67
2021/11/14 08:54:04;;;;;;;;;;;;;;;3.68;81.00;101488.02;1636297;88;20466;-67
2021/11/14 08:56:32;;;;;;;;;;;;;;;3.66;80.87;101489.50;1636484;88;20206;-67
2021/11/14 08:59:01;;;;;;;;;;;;;;;3.67;80.99;101490.36;1636041;87;20598;-66
2021/11/14 09:01:29;;;;;;;;;;;;;;;3.70;80.99;101482.84;1636341;88;20484;-66
2021/11/14 09:03:58;;;;;;;;;;;;;;;3.72;80.92;101490.84;1614090;86;20204;-70
2021/11/14 09:06:27;;;;;;;;;;;;;;;3.74;81.09;101487.02;1650372;86;20214;-66
2021/11/14 09:08:56;;;;;;;;;;;;;;;3.81;81.09;101487.37;1663024;86;20166;-70
2021/11/14 09:11:24;;;;;;;;;;;;;;;3.85;80.97;101481.20;1654190;86;20226;-68
2021/11/14 09:13:53;;;;;;;;;;;;;;;3.92;81.21;101479.23;1639058;86;20165;-67
2021/11/14 09:16:24;;;;;;;;;;;;;;;4.00;80.99;101479.95;1662910;86;21215;-67
2021/11/14 09:18:51;;;;;;;;;;;;;;;4.03;80.71;101481.05;1653685;86;20610;-67
2021/11/14 09:21:19;;;;;;;;;;;;;;;4.08;80.63;101483.73;1636073;88;20607;-67
2021/11/14 09:23:48;;;;;;;;;;;;;;;4.10;80.43;101488.53;1655657;86;20209;-67
2021/11/14 09:26:17;;;;;;;;;;;;;;;4.13;80.37;101486.06;1641755;86;20158;-68
2021/11/14 09:28:47;;;;;;;;;;;;;;;4.14;80.21;101474.22;1629142;87;20157;-69
2021/11/14 09:31:17;;;;;;;;;;;;;;;4.15;80.06;101485.44;1625521;87;20201;-77
2021/11/14 09:33:46;;;;;;;;;;;;;;;4.17;80.05;101481.23;1642723;87;20213;-71
2021/11/14 09:36:22;;;;;;;;;;;;;;;4.18;79.97;101475.68;1625567;87;20492;-66
2021/11/14 09:38:52;;;;;;;;;;;;;;;4.22;80.12;101467.64;1627867;87;20522;-68
2021/11/14 09:41:20;;;;;;;;;;;;;;;4.24;80.00;101466.16;1636354;87;20222;-65
2021/11/14 09:43:48;;;;;;;;;;;;;;;4.26;79.81;101465.53;1642796;87;20533;-69
2021/11/14 09:46:18;;;;;;;;;;;;;;;4.26;79.72;101461.46;1637469;86;20153;-68
2021/11/14 09:48:48;;;;;;;;;;;;;;;4.30;79.73;101458.85;1632797;87;20616;-68
2021/11/14 09:51:17;;;;;;;;;;;;;;;4.29;79.68;101453.92;1634916;87;20526;-69
2021/11/14 09:53:47;;;;;;;;;;;;;;;4.31;79.65;101458.72;1641944;87;20211;-66
2021/11/14 09:56:15;;;;;;;;;;;;;;;4.33;79.75;101461.30;1635986;87;20482;-68
2021/11/14 09:58:44;;;;;;;;;;;;;;;4.33;79.68;101457.23;1667155;85;20164;-67
2021/11/14 10:01:12;;;;;;;;;;;;;;;4.33;79.66;101455.38;1667916;86;20187;-68
2021/11/14 10:03:41;;;;;;;;;;;;;;;4.37;79.81;101454.63;1639227;88;20194;-69
2021/11/14 10:06:09;;;;;;;;;;;;;;;4.40;79.70;101458.42;1667628;85;20180;-69
2021/11/14 10:08:38;;;;;;;;;;;;;;;4.41;79.69;101454.72;1639575;88;20549;-68
2021/11/14 10:11:08;;;;;;;;;;;;;;;4.43;79.64;101446.81;1659670;86;20282;-69
2021/11/14 10:13:39;;;;;;;;;;;;;;;4.43;79.54;101440.03;1634989;87;20167;-66
2021/11/14 10:16:13;;;;;;;;;;;;;;;4.41;79.63;101435.23;1631587;87;20472;-67
2021/11/14 10:18:57;;;;;;;;;;;;;;;4.40;79.53;101426.72;1638340;87;20234;-67
2021/11/14 10:21:25;;;;;;;;;;;;;;;4.37;79.71;101422.06;1654071;86;20218;-69
2021/11/14 10:23:53;;;;;;;;;;;;;;;4.37;79.77;101427.48;1636478;87;20499;-69
2021/11/14 10:26:22;;;;;;;;;;;;;;;4.39;79.82;101421.43;1647493;86;20219;-69
2021/11/14 10:28:51;;;;;;;;;;;;;;;4.44;79.91;101436.81;1602977;88;20214;-68
2021/11/14 10:31:23;;;;;;;;;;;;;;;4.49;79.87;101426.92;1641195;87;20539;-67
2021/11/14 10:33:52;;;;;;;;;;;;;;;4.55;79.77;101425.03;1634626;87;20248;-67
2021/11/14 10:36:22;;;;;;;;;;;;;;;4.60;79.77;101430.45;1629366;88;20189;-67
2021/11/14 10:38:51;;;;;;;;;;;;;;;4.64;79.65;101433.26;1629394;88;20229;-67
2021/11/14 10:41:20;;;;;;;;;;;;;;;4.67;79.53;101431.63;1629493;88;20165;-69
2021/11/14 10:43:51;;;;;;;;;;;;;;;4.70;79.54;101428.65;1629340;88;20220;-69
2021/11/14 10:46:20;;;;;;;;;;;;;;;4.72;79.44;101420.37;1644992;87;20570;-68
2021/11/14 10:48:49;;;;;;;;;;;;;;;4.73;79.39;101424.31;1655958;85;20183;-69
2021/11/14 10:51:18;;;;;;;;;;;;;;;4.75;79.37;101423.67;1655890;87;20534;-68
2021/11/14 10:53:48;;;;;;;;;;;;;;;4.76;79.39;101415.89;1656284;87;20227;-69
2021/11/14 10:56:18;;;;;;;;;;;;;;;4.82;79.46;101424.48;1655829;87;20219;-67
2021/11/14 10:58:46;;;;;;;;;;;;;;;4.84;79.42;101419.28;1655936;87;20255;-69
2021/11/14 11:01:16;;;;;;;;;;;;;;;4.90;79.39;101418.74;1656216;87;20151;-67
2021/11/14 11:03:48;;;;;;;;;;;;;;;4.95;79.38;101410.19;1656059;87;20471;-68
2021/11/14 11:06:26;;;;;;;;;;;;;;;4.99;79.36;101411.13;1656106;87;20469;-68
2021/11/14 11:08:59;;;;;;;;;;;;;;;5.04;79.29;101407.50;1656033;87;20301;-68
2021/11/14 11:11:30;;;;;;;;;;;;;;;5.10;79.25;101408.81;1653053;87;20478;-68
2021/11/14 11:13:59;;;;;;;;;;;;;;;5.14;79.07;101407.55;1629428;88;20216;-67
2021/11/14 11:16:29;;;;;;;;;;;;;;;5.17;79.03;101412.70;1648003;87;20614;-68
2021/11/14 11:19:00;;;;;;;;;;;;;;;5.21;78.95;101406.02;1642639;86;20463;-69
2021/11/14 11:21:45;;;;;;;;;;;;;;;5.26;78.92;101398.31;1639735;87;20211;-69
2021/11/14 11:24:16;;;;;;;;;;;;;;;5.32;79.29;101387.38;1648889;87;20174;-68
2021/11/14 11:26:56;;;;;;;;;;;;;;;5.42;79.12;101400.50;1653326;86;20617;-68
2021/11/14 11:29:24;;;;;;;;;;;;;;;5.48;79.17;101395.86;1638895;87;20278;-69
2021/11/14 11:31:53;;;;;;;;;;;;;;;5.55;78.80;101395.66;1649038;87;20488;-68
2021/11/14 11:34:22;;;;;;;;;;;;;;;5.58;78.58;101401.31;1650453;87;20286;-69
2021/11/14 11:36:51;;;;;;;;;;;;;;;5.61;78.44;101402.39;1651155;87;20198;-68
2021/11/14 11:39:19;;;;;;;;;;;;;;;5.66;78.39;101399.60;1637870;87;20167;-71
2021/11/14 11:41:49;;;;;;;;;;;;;;;5.70;78.26;101398.81;1630129;87;20284;-67
2021/11/14 11:44:19;;;;;;;;;;;;;;;5.71;78.12;101397.31;1648354;87;20159;-67
2021/11/14 11:46:50;;;;;;;;;;;;;;;5.72;78.06;101393.59;1652998;87;20217;-71
2021/11/14 11:49:21;;;;;;;;;;;;;;;5.76;78.03;101397.39;1634534;87;20227;-68
2021/11/14 11:51:51;;;;;;;;;;;;;;;5.78;78.06;101396.25;1642208;87;20209;-68
2021/11/14 11:54:24;;;;;;;;;;;;;;;5.81;77.95;101391.02;1648850;87;20290;-69
2021/11/14 11:57:03;;;;;;;;;;;;;;;5.82;77.98;101396.31;1630901;87;20239;-69
2021/11/14 11:59:36;;;;;;;;;;;;;;;5.86;77.97;101386.05;1645175;87;20216;-68
2021/11/14 12:02:18;;;;;;;;;;;;;;;5.88;77.90;101399.86;1645700;87;20183;-67
2021/11/14 12:04:49;;;;;;;;;;;;;;;5.91;77.95;101392.81;1652928;87;20222;-69
2021/11/14 12:07:19;;;;;;;;;;;;;;;5.95;77.98;101396.09;1655821;87;20222;-69
2021/11/14 12:09:54;;;;;;;;;;;;;;;5.94;77.97;101388.44;1656171;87;20456;-69
2021/11/14 12:12:32;;;;;;;;;;;;;;;5.94;77.98;101391.16;1656292;87;20213;-70
2021/11/14 12:15:16;;;;;;;;;;;;;;;5.95;78.02;101392.87;1655995;87;20167;-70
2021/11/14 12:17:50;;;;;;;;;;;;;;;5.99;78.27;101388.87;1655912;87;20226;-70
2021/11/14 12:20:33;;;;;;;;;;;;;;;6.01;78.19;101389.58;1647790;87;20497;-67
2021/11/14 12:23:07;;;;;;;;;;;;;;;6.02;78.35;101381.78;1649471;86;20174;-74
2021/11/14 12:25:38;;;;;;;;;;;;;;;6.03;78.31;101381.28;1648311;86;20262;-69
2021/11/14 12:28:11;;;;;;;;;;;;;;;6.06;78.41;101389.15;1646110;87;20562;-68
2021/11/14 12:30:58;;;;;;;;;;;;;;;6.12;78.56;101394.52;1644325;87;20161;-67
2021/11/14 12:33:27;;;;;;;;;;;;;;;6.16;78.46;101404.11;1641801;87;20222;-68
2021/11/14 12:36:08;;;;;;;;;;;;;;;6.12;78.37;101395.87;1630248;87;20173;-66
2021/11/14 12:38:30;;;;;;;;;;;;;;;6.12;78.47;101395.38;1645205;87;20214;-69
2021/11/14 12:41:02;;;;;;;;;;;;;;;6.12;78.46;101395.38;1633921;87;20577;-69
2021/11/14 12:43:35;;;;;;;;;;;;;;;6.13;78.53;101390.79;1630131;87;20182;-68
2021/11/14 12:46:08;;;;;;;;;;;;;;;6.15;78.56;101395.59;1640924;87;20512;-69
2021/11/14 12:48:39;;;;;;;;;;;;;;;6.18;78.58;101392.58;1645299;87;20205;-69
2021/11/14 12:51:12;;;;;;;;;;;;;;;6.21;78.63;101390.92;1650816;87;20219;-71
2021/11/14 12:53:50;;;;;;;;;;;;;;;6.24;78.59;101398.80;1636146;87;20171;-67
2021/11/14 12:56:32;;;;;;;;;;;;;;;6.23;78.59;101397.08;1654219;87;20246;-68
2021/11/14 12:59:19;;;;;;;;;;;;;;;6.22;78.67;101399.44;1634489;87;20168;-69
2021/11/14 13:01:54;;;;;;;;;;;;;;;6.22;78.81;101392.64;1637023;87;20226;-69
2021/11/14 13:04:28;;;;;;;;;;;;;;;6.21;79.27;101387.70;1641881;87;20274;-67